createdAt,value
2018-09-18T00:02:17.351Z,17.00
2018-09-18T00:07:20.384Z,17.00
2018-09-18T00:12:23.406Z,17.00
2018-09-18T00:17:26.451Z,17.00
2018-09-18T00:22:29.458Z,16.90
2018-09-18T00:27:32.492Z,16.80
2018-09-18T00:32:35.511Z,16.80
2018-09-18T00:37:38.521Z,16.70
2018-09-18T00:42:41.542Z,16.70
2018-09-18T00:47:44.554Z,16.70
2018-09-18T00:52:47.591Z,16.60
2018-09-18T00:57:50.606Z,16.60
2018-09-18T01:02:53.603Z,16.50
2018-09-18T01:07:56.618Z,16.40
2018-09-18T01:12:59.620Z,16.40
2018-09-18T01:18:02.643Z,16.40
2018-09-18T01:23:05.646Z,16.40
2018-09-18T01:28:08.670Z,16.30
2018-09-18T01:33:11.733Z,16.30
2018-09-18T01:38:14.740Z,16.20
2018-09-18T01:43:17.731Z,16.20
2018-09-18T01:48:20.760Z,16.20
2018-09-18T01:53:23.771Z,16.10
2018-09-18T01:58:26.813Z,16.10
2018-09-18T02:03:29.882Z,16.10
2018-09-18T02:08:32.942Z,16.10
2018-09-18T02:13:35.971Z,16.10
2018-09-18T02:18:38.991Z,16.10
2018-09-18T02:23:42.020Z,16.10
2018-09-18T02:28:45.056Z,16.10
2018-09-18T02:33:48.075Z,16.00
2018-09-18T02:38:51.075Z,16.00
2018-09-18T02:43:54.072Z,16.00
2018-09-18T02:48:57.074Z,16.00
2018-09-18T02:54:00.075Z,16.00
2018-09-18T02:59:03.070Z,15.90
2018-09-18T03:04:06.110Z,15.90
2018-09-18T03:09:10.354Z,15.90
2018-09-18T03:14:13.378Z,15.90
2018-09-18T03:19:16.408Z,15.90
2018-09-18T03:24:19.415Z,15.80
2018-09-18T03:29:22.436Z,15.80
2018-09-18T03:34:25.436Z,15.70
2018-09-18T03:39:28.460Z,15.70
2018-09-18T03:44:31.472Z,15.70
2018-09-18T03:49:34.483Z,15.60
2018-09-18T03:54:37.556Z,15.60
2018-09-18T03:59:40.588Z,15.60
2018-09-18T04:04:43.640Z,15.60
2018-09-18T04:09:46.627Z,15.50
2018-09-18T04:14:49.631Z,15.40
2018-09-18T04:19:52.639Z,15.40
2018-09-18T04:24:55.662Z,15.40
2018-09-18T04:29:58.690Z,15.40
2018-09-18T04:35:01.704Z,15.30
2018-09-18T04:40:04.694Z,15.40
2018-09-18T04:45:07.703Z,15.40
2018-09-18T04:50:10.743Z,15.40
2018-09-18T04:55:13.755Z,15.30
2018-09-18T05:00:16.764Z,15.30
2018-09-18T05:05:19.766Z,15.40
2018-09-18T05:10:22.755Z,15.40
2018-09-18T05:15:25.766Z,15.40
2018-09-18T05:20:28.768Z,15.50
2018-09-18T05:25:31.893Z,15.60
2018-09-18T05:30:34.913Z,15.60
2018-09-18T05:35:40.001Z,15.70
2018-09-18T05:40:43.205Z,15.80
2018-09-18T05:45:46.334Z,15.90
2018-09-18T05:50:49.339Z,16.00
2018-09-18T05:55:52.340Z,16.20
2018-09-18T06:00:55.403Z,16.40
2018-09-18T06:05:58.576Z,16.50
2018-09-18T06:11:01.595Z,16.70
2018-09-18T06:16:04.736Z,16.80
2018-09-18T06:21:07.791Z,17.00
2018-09-18T06:26:10.875Z,17.10
2018-09-18T06:31:13.842Z,17.30
2018-09-18T06:36:16.842Z,17.50
2018-09-18T06:41:20.415Z,17.60
2018-09-18T06:46:23.464Z,17.80
2018-09-18T06:51:26.511Z,17.90
2018-09-18T06:56:29.554Z,18.10
2018-09-18T07:01:32.630Z,18.20
2018-09-18T07:06:35.674Z,18.40
2018-09-18T07:11:38.693Z,18.60
2018-09-18T07:16:41.717Z,18.70
2018-09-18T07:21:44.786Z,18.80
2018-09-18T07:26:47.811Z,19.10
2018-09-18T07:31:51.085Z,19.30
2018-09-18T07:36:54.348Z,19.60
2018-09-18T07:41:57.365Z,19.90
2018-09-18T07:47:00.416Z,20.10
2018-09-18T07:52:03.421Z,20.30
2018-09-18T07:57:06.594Z,20.50
2018-09-18T08:02:09.598Z,20.60
2018-09-18T08:07:12.730Z,20.80
2018-09-18T08:12:15.808Z,21.10
2018-09-18T08:17:20.099Z,21.50
2018-09-18T08:22:23.165Z,21.80
2018-09-18T08:27:26.284Z,22.00
2018-09-18T08:32:29.348Z,22.50
2018-09-18T08:37:32.364Z,22.60
2018-09-18T08:42:35.419Z,22.80
2018-09-18T08:47:38.468Z,22.80
2018-09-18T08:52:41.578Z,23.20
2018-09-18T08:57:44.558Z,23.30
2018-09-18T09:02:47.569Z,23.40
2018-09-18T09:07:50.644Z,24.10
2018-09-18T09:12:54.397Z,24.90
2018-09-18T09:17:57.512Z,25.40
2018-09-18T09:23:00.652Z,25.90
2018-09-18T09:28:03.603Z,25.40
2018-09-18T09:33:06.341Z,25.40
2018-09-18T09:38:09.343Z,25.90
2018-09-18T09:43:12.783Z,26.20
2018-09-18T09:48:16.321Z,26.70
2018-09-18T09:53:19.336Z,27.00
2018-09-18T09:58:22.334Z,27.10
2018-09-18T10:03:25.363Z,27.50
2018-09-18T10:08:28.361Z,27.70
2018-09-18T10:13:31.379Z,27.80
2018-09-18T10:18:34.359Z,28.00
2018-09-18T10:23:37.393Z,28.10
2018-09-18T10:28:40.401Z,28.30
2018-09-18T10:33:43.416Z,28.50
2018-09-18T10:38:46.439Z,28.80
2018-09-18T10:43:49.426Z,29.10
2018-09-18T10:48:53.345Z,29.00
2018-09-18T10:53:56.330Z,29.70
2018-09-18T10:58:59.336Z,30.80
2018-09-18T11:04:02.409Z,32.10
2018-09-18T11:09:07.491Z,32.30
2018-09-18T11:14:12.094Z,32.10
2018-09-18T11:19:15.112Z,33.40
2018-09-18T11:24:18.352Z,34.00
2018-09-18T11:29:21.357Z,34.30
2018-09-18T11:34:24.350Z,32.40
2018-09-18T11:39:27.347Z,31.70
2018-09-18T11:44:30.425Z,31.90
2018-09-18T11:49:33.426Z,32.60
2018-09-18T11:54:36.550Z,33.00
2018-09-18T11:59:39.553Z,33.20
2018-09-18T12:04:42.560Z,33.10
2018-09-18T12:09:45.566Z,33.00
2018-09-18T12:14:48.611Z,32.20
2018-09-18T12:19:51.680Z,32.30
2018-09-18T12:24:54.825Z,32.40
2018-09-18T12:29:57.833Z,32.30
2018-09-18T12:35:00.865Z,32.10
2018-09-18T12:40:03.927Z,31.90
2018-09-18T12:45:06.941Z,31.90
2018-09-18T12:50:10.142Z,31.70
2018-09-18T12:55:13.004Z,32.00
2018-09-18T13:00:16.134Z,31.70
2018-09-18T13:05:19.151Z,31.30
2018-09-18T13:10:22.207Z,31.10
2018-09-18T13:15:25.307Z,31.20
2018-09-18T13:20:28.343Z,31.00
2018-09-18T13:25:31.391Z,30.80
2018-09-18T13:30:35.021Z,30.80
2018-09-18T13:35:37.935Z,30.60
2018-09-18T13:40:40.991Z,30.60
2018-09-18T13:45:44.098Z,30.70
2018-09-18T13:50:47.101Z,30.90
2018-09-18T13:55:50.171Z,31.10
2018-09-18T14:00:53.255Z,31.20
2018-09-18T14:05:56.350Z,31.30
2018-09-18T14:10:59.330Z,31.40
2018-09-18T14:16:02.523Z,31.90
2018-09-18T14:21:05.534Z,32.20
2018-09-18T14:26:08.716Z,32.20
2018-09-18T14:31:11.775Z,32.50
2018-09-18T14:36:14.866Z,33.00
2018-09-18T14:41:17.892Z,33.60
2018-09-18T14:46:20.982Z,34.10
2018-09-18T14:51:23.984Z,34.30
2018-09-18T14:56:27.100Z,34.70
2018-09-18T15:01:30.117Z,34.70
2018-09-18T15:06:33.163Z,34.60
2018-09-18T15:11:36.189Z,34.80
2018-09-18T15:16:39.202Z,35.50
2018-09-18T15:21:42.273Z,36.30
2018-09-18T15:26:45.376Z,37.10
2018-09-18T15:31:48.414Z,36.70
2018-09-18T15:36:51.443Z,37.50
2018-09-18T15:41:54.464Z,38.40
2018-09-18T15:46:57.491Z,39.00
2018-09-18T15:52:00.995Z,40.00
2018-09-18T15:57:03.997Z,39.50
2018-09-18T16:02:07.398Z,39.30
2018-09-18T16:07:10.407Z,40.20
2018-09-18T16:12:13.410Z,39.80
2018-09-18T16:17:16.444Z,39.00
2018-09-18T16:22:19.553Z,37.80
2018-09-18T16:27:22.484Z,38.10
2018-09-18T16:32:25.576Z,37.20
2018-09-18T16:37:28.683Z,36.80
2018-09-18T16:42:31.723Z,35.10
2018-09-18T16:47:34.791Z,33.60
2018-09-18T16:52:37.816Z,32.20
2018-09-18T16:57:40.836Z,31.20
2018-09-18T17:02:43.845Z,30.50
2018-09-18T17:07:46.901Z,29.80
2018-09-18T17:12:49.911Z,29.30
2018-09-18T17:17:53.015Z,28.70
2018-09-18T17:22:56.045Z,28.30
2018-09-18T17:27:59.090Z,27.80
2018-09-18T17:33:02.242Z,27.50
2018-09-18T17:38:05.612Z,27.20
2018-09-18T17:43:08.611Z,26.90
2018-09-18T17:48:11.624Z,26.50
2018-09-18T17:53:14.674Z,26.30
2018-09-18T17:58:17.730Z,26.00
2018-09-18T18:03:20.752Z,25.80
2018-09-18T18:08:23.869Z,25.60
2018-09-18T18:13:27.094Z,25.40
2018-09-18T18:18:30.280Z,25.30
2018-09-18T18:23:33.424Z,25.10
2018-09-18T18:28:36.403Z,25.00
2018-09-18T18:33:39.729Z,24.80
2018-09-18T18:38:42.803Z,24.60
2018-09-18T18:43:45.948Z,24.40
2018-09-18T18:48:49.001Z,24.30
2018-09-18T18:53:52.063Z,24.10
2018-09-18T18:58:55.064Z,24.00
2018-09-18T19:03:58.132Z,23.90
2018-09-18T19:09:01.339Z,23.80
2018-09-18T19:14:04.399Z,23.60
2018-09-18T19:19:07.505Z,23.50
2018-09-18T19:24:10.806Z,23.40
2018-09-18T19:29:13.822Z,23.30
2018-09-18T19:34:16.935Z,23.20
2018-09-18T19:39:20.095Z,23.20
2018-09-18T19:44:23.177Z,23.10
2018-09-18T19:49:26.252Z,23.00
2018-09-18T19:54:29.296Z,22.90
2018-09-18T19:59:32.344Z,22.80
2018-09-18T20:04:35.483Z,22.70
2018-09-18T20:09:38.545Z,22.60
2018-09-18T20:14:41.761Z,22.50
2018-09-18T20:19:44.759Z,22.50
2018-09-18T20:24:47.784Z,22.40
2018-09-18T20:29:50.893Z,22.40
2018-09-18T20:34:54.023Z,22.30
2018-09-18T20:39:57.125Z,22.30
2018-09-18T20:45:00.171Z,22.30
2018-09-18T20:50:03.185Z,22.20
2018-09-18T20:55:06.388Z,22.20
2018-09-18T21:00:09.466Z,22.10
2018-09-18T21:05:12.490Z,22.00
2018-09-18T21:10:15.520Z,21.90
2018-09-18T21:15:18.639Z,21.90
2018-09-18T21:20:21.691Z,21.80
2018-09-18T21:25:32.908Z,21.70
2018-09-18T21:30:35.961Z,21.60
2018-09-18T21:35:39.098Z,21.50
2018-09-18T21:40:42.202Z,21.50
2018-09-18T21:45:46.436Z,21.40
2018-09-18T21:50:49.498Z,21.30
2018-09-18T21:55:52.703Z,21.30
2018-09-18T22:00:56.016Z,21.20
2018-09-18T22:05:59.134Z,21.20
2018-09-18T22:11:02.226Z,21.10
2018-09-18T22:16:05.316Z,21.10
2018-09-18T22:21:08.335Z,21.00
2018-09-18T22:26:11.382Z,21.00
2018-09-18T22:31:14.411Z,21.00
2018-09-18T22:36:17.520Z,20.90
2018-09-18T22:41:20.533Z,20.80
2018-09-18T22:46:23.558Z,20.80
2018-09-18T22:51:26.598Z,20.70
2018-09-18T22:56:29.609Z,20.60
2018-09-18T23:01:32.621Z,20.60
2018-09-18T23:06:35.638Z,20.50
2018-09-18T23:11:38.674Z,20.50
2018-09-18T23:16:41.883Z,20.40
2018-09-18T23:21:44.995Z,20.40
2018-09-18T23:26:48.026Z,20.20
2018-09-18T23:31:51.038Z,20.20
2018-09-18T23:36:54.051Z,20.20
2018-09-18T23:41:57.089Z,20.20
2018-09-18T23:47:00.111Z,20.10
2018-09-18T23:52:03.143Z,20.10
2018-09-18T23:57:06.242Z,20.00
